Terminal Aerodrome Forecast
Issued by NWS

Home | Current Version | Previous Version | Text Only | Print | Product List | Glossary On
Versions: 1 2 3 4 5 6 7 8 9 10 11 12 13 14 15 16 17 18 19 20 21 22 23 24 25 26 27
000
FTAK31 PAFG 231725
TAFABT
TAF
PABT 231725Z 2318/2418 02003KT P6SM FEW090 SCT120 SCT150
     FM241300 VRB03KT P6SM VCSH FEW015 SCT025 OVC050
     FM241600 35002KT 1 1/2SM -SN BR BKN015 OVC025=

USA.gov is the U.S. government's official web portal to all federal, state and local government web resources and services.